Search for airport 
image banner adimage banner ad
image banner ad

SVXJ - De Jose

Located in Barcelona, Venezuela

ICAO - , IATA -

Data provided by Airmate  

General information

Coordinates: N10°4'21" W64°51'50"
Elevation is feet MSL.
 
Rated:
View ratings: [VIEW]


View others Airports in Anzoategui

Operational data

Open for public use
Current time UTC:
Current local time:
METAR: SVBC 221602Z AUTO 34005KT NCD 27/22 Q1016
TAF: TAF SVBC 221000Z 2212/2312 00000KT 9999 SCT070 TX33/17Z TN26/08Z TEMPO 2218/2222 18007KT SCT010
View NOTAMs / SUP AIP / TFR affecting this airport [VIEW]
Communications frequencies: [VIEW]

Runways:

Airport contact information

Address: Barcelona Venezuela

Satellite view of SVXJ